Time;durP1;ratioP1;P1;durP2;ratioP2;P2;SDS_P1;SDS_P2;PMS_P1;PMS_P2;Temp;Humidity;BMP_temperature;BMP_pressure;BME280_temperature;BME280_humidity;BME280_pressure;Samples;Min_cycle;Max_cycle;Signal;HPM_P1;HPM_P2
2023/02/27 00:01:21;;;;;;;19.67;15.13;;;7.40;79.10;;;;;;4977462;28;20026;-62
2023/02/27 00:03:46;;;;;;;19.42;14.35;;;7.40;79.30;;;;;;4960606;28;20525;-62
2023/02/27 00:06:12;;;;;;;21.27;15.77;;;7.30;79.30;;;;;;4972299;28;20073;-61
2023/02/27 00:08:37;;;;;;;18.73;14.43;;;7.30;79.40;;;;;;4972668;28;20031;-61
2023/02/27 00:11:03;;;;;;;18.23;14.25;;;7.30;79.50;;;;;;4973127;28;20023;-61
2023/02/27 00:13:29;;;;;;;20.88;15.18;;;7.30;79.60;;;;;;4971532;28;20027;-61
2023/02/27 00:15:55;;;;;;;21.20;15.55;;;7.30;79.70;;;;;;4975956;28;20126;-61
2023/02/27 00:18:21;;;;;;;17.25;13.70;;;7.30;79.80;;;;;;4972777;28;20114;-61
2023/02/27 00:20:47;;;;;;;17.58;13.63;;;7.40;79.90;;;;;;4972756;28;20064;-61
2023/02/27 00:23:14;;;;;;;17.40;13.70;;;7.40;79.90;;;;;;4973073;28;20050;-60
2023/02/27 00:25:41;;;;;;;19.92;15.52;;;7.40;79.90;;;;;;4972448;28;20034;-62
2023/02/27 00:28:06;;;;;;;21.60;15.88;;;7.40;80.00;;;;;;4972756;28;20034;-61
2023/02/27 00:30:32;;;;;;;20.80;15.45;;;7.40;80.20;;;;;;4976225;28;20033;-62
2023/02/27 00:32:58;;;;;;;21.25;15.05;;;7.40;80.50;;;;;;4972321;28;20578;-63
2023/02/27 00:35:24;;;;;;;20.00;13.80;;;7.40;80.40;;;;;;4972702;28;20037;-63
2023/02/27 00:37:50;;;;;;;17.52;14.07;;;7.40;80.30;;;;;;4972552;28;20026;-51
2023/02/27 00:40:16;;;;;;;19.45;13.32;;;7.40;80.20;;;;;;4972894;28;20027;-54
2023/02/27 00:42:42;;;;;;;16.15;12.90;;;7.40;80.40;;;;;;4971318;28;20027;-61
2023/02/27 00:45:08;;;;;;;16.10;12.02;;;7.40;80.30;;;;;;4971122;28;20033;-62
2023/02/27 00:47:34;;;;;;;15.60;12.52;;;7.40;80.20;;;;;;4970709;28;20528;-62
2023/02/27 00:50:00;;;;;;;16.05;12.38;;;7.50;80.10;;;;;;4971773;28;20086;-62
2023/02/27 00:52:26;;;;;;;17.67;13.98;;;7.50;80.00;;;;;;4972566;28;20035;-63
2023/02/27 00:54:52;;;;;;;17.08;12.93;;;7.50;79.90;;;;;;4972430;28;20105;-63
2023/02/27 00:57:18;;;;;;;16.55;12.88;;;7.50;79.90;;;;;;4972040;28;20109;-62
2023/02/27 00:59:44;;;;;;;17.10;13.40;;;7.50;79.90;;;;;;4972057;28;20297;-61
2023/02/27 01:02:10;;;;;;;17.83;12.98;;;7.50;79.70;;;;;;4972222;28;20035;-62
2023/02/27 01:04:35;;;;;;;16.25;12.55;;;7.50;79.70;;;;;;4959940;28;20114;-63
2023/02/27 01:07:02;;;;;;;15.88;12.30;;;7.60;79.70;;;;;;4973137;28;20101;-62
2023/02/27 01:09:27;;;;;;;13.93;11.32;;;7.60;79.70;;;;;;4975556;28;20054;-60
2023/02/27 01:11:53;;;;;;;15.73;12.02;;;7.50;79.80;;;;;;4966687;28;20031;-62
2023/02/27 01:14:18;;;;;;;13.02;9.82;;;7.50;80.10;;;;;;4976174;28;20107;-62
2023/02/27 01:16:44;;;;;;;13.63;11.20;;;7.40;80.20;;;;;;4974428;28;20035;-63
2023/02/27 01:19:10;;;;;;;16.90;13.52;;;7.30;80.40;;;;;;4969855;28;20090;-63
2023/02/27 01:21:35;;;;;;;15.20;11.57;;;7.30;80.60;;;;;;4975131;28;20096;-62
2023/02/27 01:24:01;;;;;;;17.70;13.05;;;7.20;80.90;;;;;;4974617;28;20081;-62
2023/02/27 01:26:27;;;;;;;17.00;13.50;;;7.10;81.10;;;;;;4974887;28;20122;-62
2023/02/27 01:28:53;;;;;;;16.20;12.50;;;7.10;81.40;;;;;;4975892;28;20081;-63
2023/02/27 01:31:18;;;;;;;15.57;11.63;;;7.00;81.50;;;;;;4974879;28;20026;-62
2023/02/27 01:33:44;;;;;;;12.93;10.45;;;7.00;81.80;;;;;;4975416;28;20042;-62
2023/02/27 01:36:10;;;;;;;13.45;10.25;;;6.90;81.70;;;;;;4975445;28;20035;-63
2023/02/27 01:38:35;;;;;;;13.98;10.63;;;6.90;81.80;;;;;;4966241;28;20062;-63
2023/02/27 01:41:01;;;;;;;10.90;7.95;;;6.90;82.00;;;;;;4973633;28;20031;-63
2023/02/27 01:43:27;;;;;;;12.32;9.85;;;6.90;82.00;;;;;;4975989;28;20102;-62
2023/02/27 01:45:53;;;;;;;10.45;8.48;;;6.90;82.10;;;;;;4976255;28;20035;-63
2023/02/27 01:48:24;;;;;;;9.73;7.75;;;6.80;82.00;;;;;;4975771;28;20034;-62
2023/02/27 01:51:31;;;;;;;9.80;7.75;;;6.80;82.20;;;;;;4961805;28;20022;-62
2023/02/27 01:53:58;;;;;;;9.70;8.18;;;6.70;82.00;;;;;;4953735;28;20038;-63
2023/02/27 01:56:29;;;;;;;10.45;8.63;;;6.70;82.10;;;;;;4975309;28;20462;-61
2023/02/27 01:59:00;;;;;;;;;;;6.60;82.20;;;;;;4975253;28;20050;-61
2023/02/27 02:01:26;;;;;;;9.98;8.10;;;6.60;82.20;;;;;;4977394;28;19910;-54
2023/02/27 02:03:53;;;;;;;11.02;7.90;;;6.60;82.20;;;;;;4975150;28;20034;-50
2023/02/27 02:06:20;;;;;;;10.27;8.30;;;6.60;82.30;;;;;;4973438;28;20031;-51
2023/02/27 02:08:48;;;;;;;12.30;9.05;;;6.60;82.50;;;;;;4974352;28;20524;-52
2023/02/27 02:11:17;;;;;;;13.10;9.32;;;6.60;82.40;;;;;;4974128;28;20027;-51
2023/02/27 02:13:43;;;;;;;12.57;10.40;;;6.60;82.50;;;;;;4974198;28;20119;-53
2023/02/27 02:16:24;;;;;;;13.45;10.77;;;6.60;82.50;;;;;;4976636;28;20634;-50
2023/02/27 02:19:14;;;;;;;12.55;9.73;;;6.60;82.60;;;;;;4972628;28;20117;-49
2023/02/27 02:21:55;;;;;;;13.25;9.77;;;6.60;82.40;;;;;;4973352;28;20075;-55
2023/02/27 02:24:53;;;;;;;11.82;9.43;;;6.60;82.40;;;;;;4973584;28;20461;-52
2023/02/27 02:27:24;;;;;;;10.73;8.95;;;6.60;82.30;;;;;;4973151;28;20106;-53
2023/02/27 02:30:15;;;;;;;9.93;7.63;;;6.60;82.40;;;;;;4976317;28;20043;-50
2023/02/27 02:33:17;;;;;;;13.15;10.20;;;6.60;82.30;;;;;;4973727;28;20027;-50
2023/02/27 02:35:48;;;;;;;12.02;9.60;;;6.60;82.50;;;;;;4973440;28;20073;-50
2023/02/27 02:38:26;;;;;;;12.85;9.43;;;6.60;82.60;;;;;;4974402;28;20732;-54
2023/02/27 02:41:18;;;;;;;14.20;11.43;;;6.60;82.60;;;;;;4973946;28;20039;-51
2023/02/27 02:43:48;;;;;;;12.82;10.43;;;6.50;82.60;;;;;;4962881;28;20497;-52
2023/02/27 02:46:24;;;;;;;13.77;10.90;;;6.50;82.80;;;;;;4974043;28;20457;-52
2023/02/27 02:49:23;;;;;;;13.60;9.50;;;6.50;82.90;;;;;;4970668;28;20035;-53
2023/02/27 02:52:07;;;;;;;11.60;8.95;;;6.50;82.90;;;;;;4932654;28;20073;-56
2023/02/27 02:55:09;;;;;;;11.63;9.18;;;6.60;82.90;;;;;;4964883;28;20034;-52
2023/02/27 02:57:48;;;;;;;11.55;9.25;;;6.60;82.90;;;;;;4959727;28;20057;-52
2023/02/27 03:00:16;;;;;;;17.30;12.43;;;6.60;82.80;;;;;;4975394;28;20454;-52
2023/02/27 03:02:46;;;;;;;16.48;12.00;;;6.60;82.80;;;;;;4973863;28;20029;-50
2023/02/27 03:05:21;;;;;;;15.85;12.70;;;6.60;82.70;;;;;;4969145;28;20035;-56
2023/02/27 03:07:48;;;;;;;17.23;13.88;;;6.60;82.70;;;;;;4973404;28;20042;-53
2023/02/27 03:10:24;;;;;;;18.23;13.52;;;6.60;82.80;;;;;;4974162;28;20097;-54
2023/02/27 03:12:57;;;;;;;16.23;12.18;;;6.70;82.80;;;;;;4972959;28;20470;-59
2023/02/27 03:15:31;;;;;;;16.83;13.18;;;6.70;82.60;;;;;;4962008;28;20035;-59
2023/02/27 03:18:17;;;;;;;14.38;11.85;;;6.70;82.60;;;;;;4976855;28;20050;-60
2023/02/27 03:20:51;;;;;;;14.93;11.38;;;6.60;82.60;;;;;;4974042;28;20031;-59
2023/02/27 03:23:22;;;;;;;15.50;11.82;;;6.60;82.80;;;;;;4973240;28;20046;-60
2023/02/27 03:25:49;;;;;;;14.13;11.25;;;6.50;82.90;;;;;;4972773;28;20050;-60
2023/02/27 03:28:22;;;;;;;14.63;11.25;;;6.50;83.20;;;;;;4973464;28;20093;-63
2023/02/27 03:31:08;;;;;;;16.20;13.02;;;6.50;83.80;;;;;;4967602;28;20061;-62
2023/02/27 03:33:47;;;;;;;18.70;14.00;;;6.40;83.20;;;;;;4973068;28;20026;-63
2023/02/27 03:36:39;;;;;;;17.52;13.90;;;6.40;83.50;;;;;;4973699;28;20396;-63
2023/02/27 03:39:24;;;;;;;;;;;6.40;83.40;;;;;;4963843;28;20039;-63
2023/02/27 03:42:13;;;;;;;18.42;13.45;;;6.40;83.40;;;;;;4972299;28;19914;-63
2023/02/27 03:45:07;;;;;;;17.30;12.60;;;6.40;83.30;;;;;;4973238;28;20086;-63
2023/02/27 03:47:33;;;;;;;15.75;11.45;;;6.40;83.30;;;;;;4948853;28;20414;-63
2023/02/27 03:49:59;;;;;;;16.67;12.27;;;6.40;83.50;;;;;;4973261;28;20106;-63
2023/02/27 03:52:27;;;;;;;15.70;12.40;;;6.40;83.40;;;;;;4973127;28;20478;-63
2023/02/27 03:54:55;;;;;;;17.63;12.50;;;6.50;83.60;;;;;;4973046;28;20347;-63
2023/02/27 03:57:21;;;;;;;15.52;12.13;;;6.40;83.60;;;;;;4973180;28;20037;-63
2023/02/27 03:59:48;;;;;;;17.27;12.93;;;6.40;83.70;;;;;;4975313;28;20030;-63
2023/02/27 04:02:15;;;;;;;16.83;13.43;;;6.40;83.90;;;;;;4973116;28;20462;-63
2023/02/27 04:04:41;;;;;;;17.33;13.55;;;6.40;83.90;;;;;;4971826;28;20026;-63
2023/02/27 04:07:34;;;;;;;17.75;13.88;;;6.30;84.10;;;;;;4973172;28;20039;-63
2023/02/27 04:10:20;;;;;;;17.70;12.85;;;6.30;84.10;;;;;;4962874;28;20027;-63
2023/02/27 04:13:04;;;;;;;15.95;13.02;;;6.30;84.20;;;;;;4968523;28;20106;-63
2023/02/27 04:16:02;;;;;;;16.50;12.80;;;6.30;84.30;;;;;;4973134;28;20030;-63
2023/02/27 04:18:47;;;;;;;17.52;13.00;;;6.30;84.40;;;;;;4960038;28;20034;-63
2023/02/27 04:21:15;;;;;;;15.07;12.30;;;6.20;84.40;;;;;;4961492;28;20038;-62
2023/02/27 04:23:53;;;;;;;17.73;12.10;;;6.20;84.50;;;;;;4972826;28;20031;-63
2023/02/27 04:26:43;;;;;;;15.55;11.95;;;6.20;84.60;;;;;;4972833;28;20117;-63
2023/02/27 04:29:35;;;;;;;14.45;11.73;;;6.10;84.50;;;;;;4973164;28;20366;-63
2023/02/27 04:32:13;;;;;;;15.32;12.57;;;6.10;84.60;;;;;;4969802;28;20054;-63
2023/02/27 04:34:44;;;;;;;14.75;11.05;;;6.10;84.90;;;;;;4972053;28;20035;-63
2023/02/27 04:37:15;;;;;;;12.98;10.30;;;6.00;85.00;;;;;;4972552;28;20035;-63
2023/02/27 04:39:50;;;;;;;11.48;9.73;;;6.00;85.10;;;;;;4972655;28;20031;-63
2023/02/27 04:42:20;;;;;;;14.25;10.60;;;6.00;85.10;;;;;;4962167;28;20085;-63
2023/02/27 04:44:49;;;;;;;14.13;10.52;;;6.00;85.30;;;;;;4976611;28;20026;-63
2023/02/27 04:47:16;;;;;;;15.32;11.40;;;6.00;85.40;;;;;;4979717;28;20038;-63
2023/02/27 04:49:50;;;;;;;12.68;10.15;;;5.90;85.50;;;;;;4976348;28;20037;-64
2023/02/27 04:52:42;;;;;;;11.40;9.05;;;5.90;85.50;;;;;;4976525;28;20034;-63
2023/02/27 04:55:19;;;;;;;12.70;9.10;;;5.90;85.50;;;;;;4976094;28;20031;-63
2023/02/27 04:57:47;;;;;;;11.50;8.00;;;5.90;85.60;;;;;;4975829;28;20054;-63
2023/02/27 05:00:15;;;;;;;10.75;8.05;;;6.00;85.70;;;;;;4976635;28;20053;-63
2023/02/27 05:02:53;;;;;;;9.82;6.90;;;5.90;85.70;;;;;;4976201;28;20061;-63
2023/02/27 05:05:24;;;;;;;10.43;7.95;;;5.90;85.60;;;;;;4972314;28;20110;-63
2023/02/27 05:08:25;;;;;;;9.32;8.10;;;5.90;85.80;;;;;;4975845;28;20045;-63
2023/02/27 05:11:02;;;;;;;11.07;8.35;;;5.80;85.80;;;;;;4975857;28;20027;-63
2023/02/27 05:13:42;;;;;;;10.27;7.88;;;5.80;85.90;;;;;;4975814;28;20481;-63
2023/02/27 05:16:26;;;;;;;10.77;8.45;;;5.80;86.00;;;;;;4981189;28;20056;-63
2023/02/27 05:18:53;;;;;;;12.05;9.40;;;5.70;86.20;;;;;;4979869;28;20078;-63
2023/02/27 05:21:48;;;;;;;11.13;8.40;;;5.70;86.30;;;;;;4975609;28;20497;-63
2023/02/27 05:24:47;;;;;;;11.50;8.85;;;5.70;86.00;;;;;;4966437;28;20088;-63
2023/02/27 05:27:35;;;;;;;9.55;8.10;;;5.60;86.10;;;;;;4975452;28;20166;-63
2023/02/27 05:30:25;;;;;;;11.30;8.68;;;5.60;87.00;;;;;;4975779;28;20039;-63
2023/02/27 05:33:02;;;;;;;11.65;8.65;;;5.60;86.20;;;;;;4974622;28;20114;-62
2023/02/27 05:35:43;;;;;;;10.45;8.70;;;5.50;86.40;;;;;;4964598;28;20151;-63
2023/02/27 05:38:21;;;;;;;;;;;5.50;86.60;;;;;;4974715;28;20043;-63
2023/02/27 05:40:51;;;;;;;10.75;8.93;;;5.40;86.50;;;;;;4975145;28;19914;-63
2023/02/27 05:43:26;;;;;;;11.65;9.45;;;5.40;86.70;;;;;;4975277;28;20059;-63
2023/02/27 05:45:58;;;;;;;11.60;8.98;;;5.40;86.70;;;;;;4976437;28;20375;-63
2023/02/27 05:48:28;;;;;;;12.55;8.93;;;5.30;86.90;;;;;;4976662;28;20316;-62
2023/02/27 05:50:56;;;;;;;14.00;9.40;;;5.30;86.90;;;;;;4974827;28;20039;-63
2023/02/27 05:53:26;;;;;;;13.60;10.27;;;5.30;87.10;;;;;;4974973;28;20031;-63
2023/02/27 05:55:54;;;;;;;13.25;10.52;;;5.30;87.00;;;;;;4970595;28;20034;-63
2023/02/27 05:58:26;;;;;;;13.23;9.90;;;5.30;87.00;;;;;;4973888;28;20454;-63
2023/02/27 06:00:59;;;;;;;13.32;10.40;;;5.30;87.00;;;;;;4973801;28;20038;-63
2023/02/27 06:03:27;;;;;;;12.75;10.57;;;5.30;87.00;;;;;;4974167;28;20381;-63
2023/02/27 06:05:54;;;;;;;15.13;11.57;;;5.30;87.10;;;;;;4972475;28;20497;-63
2023/02/27 06:08:21;;;;;;;16.20;11.48;;;5.30;87.40;;;;;;4973511;28;20511;-63
2023/02/27 06:10:48;;;;;;;13.80;10.40;;;5.30;87.30;;;;;;4973568;28;20119;-63
2023/02/27 06:13:15;;;;;;;14.15;11.13;;;5.30;87.30;;;;;;4974194;28;20130;-63
2023/02/27 06:15:42;;;;;;;16.33;11.85;;;5.30;87.30;;;;;;4976155;28;20117;-63
2023/02/27 06:18:09;;;;;;;14.77;11.13;;;5.30;87.30;;;;;;4984863;28;20037;-63
2023/02/27 06:20:34;;;;;;;14.88;10.93;;;5.30;87.10;;;;;;4974528;28;20030;-63
2023/02/27 06:23:00;;;;;;;16.05;12.07;;;5.20;87.00;;;;;;4974685;28;20538;-62
2023/02/27 06:25:26;;;;;;;11.98;10.05;;;5.20;87.10;;;;;;4974470;28;20110;-63
2023/02/27 06:27:51;;;;;;;12.60;10.07;;;5.20;87.00;;;;;;4974409;28;20354;-63
2023/02/27 06:30:17;;;;;;;14.50;10.48;;;5.20;87.20;;;;;;4974230;28;20031;-63
2023/02/27 06:32:43;;;;;;;13.40;9.45;;;5.10;86.90;;;;;;4973946;28;20023;-51
2023/02/27 06:35:09;;;;;;;12.23;9.60;;;5.10;86.90;;;;;;4972805;28;20437;-54
2023/02/27 06:37:34;;;;;;;10.88;8.80;;;5.10;86.90;;;;;;4970331;28;20073;-56
2023/02/27 06:40:00;;;;;;;11.88;8.98;;;5.10;86.90;;;;;;4967643;28;20066;-52
2023/02/27 06:42:26;;;;;;;12.60;10.15;;;5.10;86.80;;;;;;4972820;28;20045;-53
2023/02/27 06:44:51;;;;;;;11.82;9.20;;;5.10;86.70;;;;;;4971404;28;20030;-56
2023/02/27 06:47:17;;;;;;;11.88;9.18;;;5.10;86.60;;;;;;4970819;28;20496;-52
2023/02/27 06:49:43;;;;;;;9.73;8.23;;;5.00;86.60;;;;;;4963544;28;20035;-55
2023/02/27 06:52:08;;;;;;;12.77;8.63;;;5.10;86.70;;;;;;4965052;28;20382;-53
2023/02/27 06:54:34;;;;;;;11.40;8.45;;;5.00;86.70;;;;;;4970480;28;20027;-55
2023/02/27 06:57:00;;;;;;;12.38;8.52;;;5.00;86.60;;;;;;4965921;28;20042;-53
2023/02/27 06:59:25;;;;;;;13.25;10.07;;;5.00;86.70;;;;;;4963114;28;20038;-55
2023/02/27 07:01:51;;;;;;;11.23;8.80;;;5.00;86.80;;;;;;4967231;28;20059;-59
2023/02/27 07:04:17;;;;;;;10.30;8.27;;;5.00;86.90;;;;;;4968935;28;20030;-59
2023/02/27 07:06:42;;;;;;;8.93;7.57;;;5.00;86.90;;;;;;4962699;28;20032;-58
2023/02/27 07:09:08;;;;;;;10.20;8.02;;;5.00;87.30;;;;;;4972108;28;20034;-57
2023/02/27 07:11:34;;;;;;;10.90;8.60;;;5.00;87.10;;;;;;4966608;28;20445;-58
2023/02/27 07:13:59;;;;;;;10.65;8.32;;;5.00;87.10;;;;;;4966275;28;20859;-58
2023/02/27 07:16:25;;;;;;;10.85;7.97;;;4.90;87.20;;;;;;4961742;28;20418;-58
2023/02/27 07:18:50;;;;;;;11.32;8.27;;;4.90;87.30;;;;;;4960488;28;20077;-56
2023/02/27 07:21:16;;;;;;;9.93;7.97;;;4.90;87.40;;;;;;4956159;28;20423;-59
2023/02/27 07:23:42;;;;;;;12.80;9.10;;;4.90;87.40;;;;;;4955468;28;20031;-59
2023/02/27 07:26:08;;;;;;;10.23;8.07;;;4.90;87.40;;;;;;4957268;28;20042;-59
2023/02/27 07:28:33;;;;;;;10.90;8.05;;;4.90;87.40;;;;;;4959577;28;20038;-58
2023/02/27 07:30:59;;;;;;;9.95;7.70;;;4.90;87.30;;;;;;4962276;28;20037;-60
2023/02/27 07:33:25;;;;;;;9.32;7.40;;;5.00;87.40;;;;;;4958740;28;20350;-59
2023/02/27 07:35:51;;;;;;;9.43;7.57;;;5.00;87.40;;;;;;4962147;28;20061;-59
2023/02/27 07:38:18;;;;;;;12.52;9.23;;;5.00;87.10;;;;;;4961398;28;20563;-59
2023/02/27 07:40:44;;;;;;;9.48;7.15;;;5.00;86.90;;;;;;4954390;28;20130;-59
2023/02/27 07:43:10;;;;;;;10.55;7.78;;;5.00;86.70;;;;;;4954089;28;20090;-59
2023/02/27 07:45:36;;;;;;;10.57;7.97;;;5.10;86.70;;;;;;4955295;28;20429;-60
2023/02/27 07:48:02;;;;;;;9.13;7.28;;;5.00;86.40;;;;;;4959056;28;20034;-59
2023/02/27 07:50:27;;;;;;;11.57;7.70;;;5.10;86.40;;;;;;4961368;28;20127;-57
2023/02/27 07:52:53;;;;;;;9.77;7.65;;;5.10;86.50;;;;;;4951606;28;20414;-59
2023/02/27 07:55:19;;;;;;;9.05;7.22;;;5.00;86.30;;;;;;4949767;28;20045;-59
2023/02/27 07:57:44;;;;;;;10.55;7.88;;;5.10;86.30;;;;;;4964339;28;20034;-60
2023/02/27 08:00:11;;;;;;;10.68;7.97;;;5.00;86.20;;;;;;4947281;28;20035;-57
2023/02/27 08:02:37;;;;;;;9.25;7.15;;;5.00;86.10;;;;;;4946465;28;20054;-59
2023/02/27 08:05:03;;;;;;;9.38;7.15;;;5.00;86.20;;;;;;4949994;28;20035;-59
2023/02/27 08:07:29;;;;;;;10.93;7.22;;;5.00;86.20;;;;;;4944928;28;20043;-59
2023/02/27 08:09:54;;;;;;;11.27;8.25;;;5.00;86.20;;;;;;4949677;28;20035;-57
2023/02/27 08:12:21;;;;;;;9.65;8.05;;;5.00;86.20;;;;;;4948401;28;20023;-58
2023/02/27 08:14:46;;;;;;;9.95;7.43;;;5.00;86.30;;;;;;4944505;28;21323;-60
2023/02/27 08:17:12;;;;;;;13.07;9.25;;;5.00;86.40;;;;;;4955076;28;20034;-60
2023/02/27 08:19:38;;;;;;;10.48;8.13;;;4.90;86.40;;;;;;4953183;28;20062;-57
2023/02/27 08:22:04;;;;;;;12.02;8.65;;;4.90;86.50;;;;;;4959422;28;20117;-54
2023/02/27 08:24:30;;;;;;;10.38;7.75;;;4.90;86.60;;;;;;4962501;28;20038;-58
2023/02/27 08:26:56;;;;;;;12.02;7.75;;;4.80;87.00;;;;;;4954869;28;20141;-60
2023/02/27 08:29:22;;;;;;;11.88;8.43;;;4.80;86.90;;;;;;4951479;28;20035;-61
2023/02/27 08:31:48;;;;;;;9.85;7.78;;;4.80;87.30;;;;;;4944727;28;21638;-58
2023/02/27 08:34:13;;;;;;;11.70;8.20;;;4.80;87.30;;;;;;4956995;28;20046;-59
2023/02/27 08:36:40;;;;;;;10.23;8.13;;;4.80;87.20;;;;;;4950600;28;20061;-59
2023/02/27 08:39:06;;;;;;;9.65;7.47;;;4.80;87.30;;;;;;4950534;28;20042;-60
2023/02/27 08:41:32;;;;;;;9.30;7.63;;;4.90;87.20;;;;;;4946197;28;20037;-60
2023/02/27 08:43:58;;;;;;;9.45;7.28;;;4.90;87.10;;;;;;4949207;28;20031;-60
2023/02/27 08:46:24;;;;;;;8.38;6.80;;;4.90;87.00;;;;;;4954282;28;20046;-60
2023/02/27 08:48:49;;;;;;;9.32;7.22;;;4.90;87.00;;;;;;4956704;28;20042;-60
2023/02/27 08:51:15;;;;;;;8.20;6.82;;;5.00;87.60;;;;;;4952718;28;20065;-60
2023/02/27 08:53:40;;;;;;;9.63;6.88;;;5.10;87.10;;;;;;4945625;28;20077;-60
2023/02/27 08:56:06;;;;;;;9.73;6.90;;;5.20;86.90;;;;;;4954615;28;20070;-59
2023/02/27 08:58:34;;;;;;;9.32;6.82;;;5.20;86.20;;;;;;4949542;28;20231;-59
2023/02/27 09:01:00;;;;;;;9.45;6.85;;;5.20;85.90;;;;;;4942568;28;20034;-59
2023/02/27 09:03:27;;;;;;;8.45;6.85;;;5.20;85.60;;;;;;4953405;28;20057;-59
2023/02/27 09:05:54;;;;;;;8.65;6.25;;;5.20;85.70;;;;;;4942879;28;20125;-60
2023/02/27 09:08:20;;;;;;;8.98;6.78;;;5.20;85.60;;;;;;4950173;28;20058;-58
2023/02/27 09:10:46;;;;;;;8.05;6.40;;;5.20;85.50;;;;;;4952659;28;20039;-59
2023/02/27 09:13:12;;;;;;;9.35;7.15;;;5.20;85.50;;;;;;4948106;28;20031;-59
2023/02/27 09:15:37;;;;;;;8.57;6.70;;;5.20;85.60;;;;;;4945807;28;20062;-60
2023/02/27 09:18:05;;;;;;;10.10;7.30;;;5.10;85.80;;;;;;4952501;28;20727;-60
2023/02/27 09:20:34;;;;;;;8.70;6.55;;;5.10;86.00;;;;;;4962364;28;20145;-59
2023/02/27 09:23:00;;;;;;;9.32;7.28;;;5.10;86.10;;;;;;4953306;28;20062;-58
2023/02/27 09:25:27;;;;;;;10.15;7.05;;;5.10;86.10;;;;;;4950769;28;20034;-59
2023/02/27 09:27:53;;;;;;;8.65;6.07;;;5.20;86.00;;;;;;4950189;28;20039;-59
2023/02/27 09:30:18;;;;;;;7.75;6.50;;;5.20;86.00;;;;;;4954240;28;20051;-58
2023/02/27 09:32:44;;;;;;;8.32;6.57;;;5.20;85.90;;;;;;4951733;28;20650;-59
2023/02/27 09:35:10;;;;;;;8.68;6.65;;;5.20;85.80;;;;;;4945510;28;20030;-58
2023/02/27 09:37:36;;;;;;;9.75;7.43;;;5.10;85.70;;;;;;4959140;28;20039;-60
2023/02/27 09:40:04;;;;;;;8.15;6.72;;;5.10;85.80;;;;;;4954255;28;20097;-59
2023/02/27 09:42:44;;;;;;;8.68;6.55;;;5.10;85.90;;;;;;4956055;28;20084;-57
2023/02/27 09:45:23;;;;;;;8.68;7.25;;;5.10;85.70;;;;;;4963082;28;20545;-58
2023/02/27 09:47:58;;;;;;;7.65;6.53;;;5.10;85.80;;;;;;4956451;28;20069;-58
2023/02/27 09:50:27;;;;;;;9.55;6.82;;;5.10;85.90;;;;;;4959235;28;20034;-59
2023/02/27 09:52:53;;;;;;;7.85;6.25;;;5.10;85.80;;;;;;4954346;28;20497;-58
2023/02/27 09:55:21;;;;;;;9.13;6.65;;;5.10;85.70;;;;;;4950541;28;20035;-59
2023/02/27 09:58:06;;;;;;;8.07;6.38;;;5.10;85.70;;;;;;4958486;28;20125;-59
2023/02/27 10:00:48;;;;;;;7.40;5.82;;;5.10;85.40;;;;;;4944923;28;20057;-57
2023/02/27 10:03:29;;;;;;;9.55;7.28;;;5.10;85.40;;;;;;4944780;28;20042;-59
2023/02/27 10:06:07;;;;;;;8.80;6.50;;;5.00;85.40;;;;;;4946574;28;20035;-61
2023/02/27 10:08:46;;;;;;;8.82;6.47;;;5.00;85.40;;;;;;4950125;28;20044;-60
2023/02/27 10:11:18;;;;;;;9.63;6.90;;;5.00;85.50;;;;;;4955794;28;20114;-58
2023/02/27 10:13:56;;;;;;;8.50;6.03;;;5.00;85.50;;;;;;4953517;28;20031;-59
2023/02/27 10:16:24;;;;;;;8.57;6.82;;;5.00;85.60;;;;;;4952202;28;20053;-59
2023/02/27 10:18:56;;;;;;;9.25;6.82;;;5.00;85.60;;;;;;4943454;28;20050;-58
2023/02/27 10:21:30;;;;;;;9.00;6.68;;;5.00;85.40;;;;;;4948264;28;21443;-59
2023/02/27 10:24:28;;;;;;;11.15;8.07;;;4.90;85.30;;;;;;4949934;28;20039;-59
2023/02/27 10:26:57;;;;;;;9.93;7.25;;;4.90;85.10;;;;;;4941406;28;20047;-60
2023/02/27 10:29:43;;;;;;;10.02;7.18;;;4.90;85.60;;;;;;4946399;28;20092;-60
2023/02/27 10:32:23;;;;;;;10.27;8.15;;;4.80;85.70;;;;;;4950654;28;20069;-59
2023/02/27 10:35:05;;;;;;;11.30;7.88;;;4.80;85.90;;;;;;4952401;28;20049;-60
2023/02/27 10:37:33;;;;;;;10.38;7.72;;;4.80;85.70;;;;;;4956877;28;20050;-59
2023/02/27 10:40:04;;;;;;;10.35;7.88;;;4.80;85.70;;;;;;4958306;28;20018;-60
2023/02/27 10:42:35;;;;;;;10.50;8.35;;;4.80;86.00;;;;;;4963409;28;20501;-60
2023/02/27 10:45:02;;;;;;;10.45;7.95;;;4.80;86.00;;;;;;4957076;28;20084;-59
2023/02/27 10:47:28;;;;;;;10.38;7.88;;;4.80;85.90;;;;;;4956670;28;21952;-60
2023/02/27 10:49:54;;;;;;;10.52;7.93;;;4.80;85.90;;;;;;4959086;28;20054;-58
2023/02/27 10:52:20;;;;;;;10.45;7.85;;;4.70;85.70;;;;;;4960203;28;20050;-59
2023/02/27 10:54:47;;;;;;;10.10;7.97;;;4.70;86.00;;;;;;4961339;28;20864;-59
2023/02/27 10:57:29;;;;;;;10.70;7.60;;;4.70;86.10;;;;;;4956446;28;20066;-59
2023/02/27 11:00:04;;;;;;;10.57;7.90;;;4.70;86.10;;;;;;4959121;28;20468;-59
2023/02/27 11:02:40;;;;;;;10.20;7.90;;;4.70;86.30;;;;;;4951857;28;20042;-59
2023/02/27 11:05:25;;;;;;;12.07;8.00;;;4.70;86.50;;;;;;4953683;28;20039;-60
2023/02/27 11:07:51;;;;;;;12.43;8.43;;;4.70;86.60;;;;;;4957906;28;20035;-59
2023/02/27 11:10:20;;;;;;;8.82;6.72;;;4.60;86.70;;;;;;4954203;28;20062;-59
2023/02/27 11:13:04;;;;;;;10.25;7.47;;;4.60;86.80;;;;;;4957328;28;20030;-59
2023/02/27 11:15:39;;;;;;;9.43;7.68;;;4.60;86.50;;;;;;4954695;28;20062;-59
2023/02/27 11:18:28;;;;;;;8.10;6.57;;;4.60;86.40;;;;;;4952120;28;20608;-59
2023/02/27 11:21:13;;;;;;;8.50;6.55;;;4.60;86.20;;;;;;4956196;28;21013;-59
2023/02/27 11:23:49;;;;;;;9.27;7.35;;;4.60;86.20;;;;;;4958563;28;20443;-60
2023/02/27 11:26:19;;;;;;;8.63;6.68;;;4.70;86.40;;;;;;4958689;28;20129;-60
2023/02/27 11:29:18;;;;;;;9.02;7.10;;;4.70;86.20;;;;;;4964849;28;20051;-60
2023/02/27 11:31:50;;;;;;;10.38;7.78;;;4.70;85.90;;;;;;4964451;28;20031;-60
2023/02/27 11:34:38;;;;;;;8.15;6.15;;;4.60;86.00;;;;;;4962752;28;20718;-60
2023/02/27 11:37:26;;;;;;;10.18;7.22;;;4.70;85.90;;;;;;4963136;28;20051;-60
2023/02/27 11:40:03;;;;;;;8.50;7.00;;;4.60;86.20;;;;;;4967998;28;20074;-60
2023/02/27 11:42:33;;;;;;;9.45;7.50;;;4.60;86.30;;;;;;4956429;28;20034;-59
2023/02/27 11:45:02;;;;;;;8.27;6.90;;;4.60;86.40;;;;;;4955855;28;20118;-59
2023/02/27 11:47:33;;;;;;;8.60;6.93;;;4.60;87.10;;;;;;4962706;28;20385;-59
2023/02/27 11:50:16;;;;;;;8.52;7.07;;;4.50;86.50;;;;;;4959298;28;20045;-60
2023/02/27 11:52:47;;;;;;;10.27;7.65;;;4.50;86.70;;;;;;4959783;28;20041;-59
2023/02/27 11:55:16;;;;;;;11.50;8.57;;;4.50;86.90;;;;;;4961946;28;20023;-59
2023/02/27 11:57:45;;;;;;;10.82;8.20;;;4.40;86.90;;;;;;4962401;28;21358;-59
2023/02/27 12:00:26;;;;;;;11.88;8.90;;;4.40;87.20;;;;;;4957712;28;20035;-58
2023/02/27 12:03:27;;;;;;;12.00;8.65;;;4.30;87.30;;;;;;4957096;28;20401;-59
2023/02/27 12:05:57;;;;;;;11.70;8.30;;;4.20;87.50;;;;;;4952893;28;20473;-58
2023/02/27 12:08:30;;;;;;;12.27;8.73;;;4.10;87.90;;;;;;4956818;28;20047;-59
2023/02/27 12:11:26;;;;;;;10.68;8.18;;;4.10;88.00;;;;;;4950432;28;22182;-58
2023/02/27 12:14:27;;;;;;;11.75;8.45;;;4.10;88.20;;;;;;4953827;28;20061;-60
2023/02/27 12:17:21;;;;;;;10.63;7.75;;;4.10;88.30;;;;;;4961181;28;20031;-60
2023/02/27 12:20:21;;;;;;;9.32;7.97;;;4.10;88.40;;;;;;4951373;28;20027;-61
2023/02/27 12:22:50;;;;;;;9.27;7.72;;;4.10;88.40;;;;;;4959657;28;20051;-61
2023/02/27 12:25:54;;;;;;;9.10;7.50;;;4.10;88.40;;;;;;4957139;28;20035;-60
2023/02/27 12:28:40;;;;;;;9.98;8.02;;;4.10;88.40;;;;;;4959704;28;20094;-59
2023/02/27 12:31:17;;;;;;;9.13;7.05;;;4.10;88.20;;;;;;4936142;28;20043;-59
2023/02/27 12:34:07;;;;;;;9.88;7.70;;;4.20;88.40;;;;;;4961850;28;20031;-61
2023/02/27 12:36:33;;;;;;;9.68;6.43;;;4.20;88.00;;;;;;4949798;28;20043;-60
2023/02/27 12:38:59;;;;;;;8.65;7.20;;;4.20;88.20;;;;;;4961902;28;20093;-58
2023/02/27 12:41:36;;;;;;;9.85;7.05;;;4.30;88.10;;;;;;4955848;28;20698;-58
2023/02/27 12:44:11;;;;;;;8.75;6.55;;;4.30;88.10;;;;;;4954177;28;20040;-59
2023/02/27 12:47:18;;;;;;;7.05;5.85;;;4.30;87.90;;;;;;4945507;28;20042;-59
2023/02/27 12:50:10;;;;;;;7.88;6.38;;;4.40;87.50;;;;;;4947882;28;20855;-59
2023/02/27 12:52:53;;;;;;;6.68;5.70;;;4.40;87.50;;;;;;4948277;28;20121;-59
2023/02/27 12:55:32;;;;;;;9.75;7.72;;;4.40;87.60;;;;;;4951176;28;20509;-60
2023/02/27 12:58:21;;;;;;;9.75;7.18;;;4.40;87.50;;;;;;4946399;28;20080;-59
2023/02/27 13:00:59;;;;;;;9.10;7.90;;;4.40;87.30;;;;;;4939622;28;20549;-59
2023/02/27 13:03:53;;;;;;;9.27;7.22;;;4.30;87.40;;;;;;4957653;28;20193;-58
2023/02/27 13:06:57;;;;;;;8.30;6.57;;;4.30;87.60;;;;;;4955901;28;20038;-59
2023/02/27 13:10:01;;;;;;;9.98;8.23;;;4.30;87.80;;;;;;4936713;28;22037;-57
2023/02/27 13:12:46;;;;;;;8.82;6.78;;;4.20;87.70;;;;;;4897216;29;20118;-58
2023/02/27 13:15:20;;;;;;;9.85;7.45;;;4.20;88.00;;;;;;4958648;28;20035;-58
2023/02/27 13:17:48;;;;;;;9.20;7.55;;;4.20;88.10;;;;;;4958189;28;21598;-59